createdAt,value
2019-06-20T00:00:50.119Z,0.00
2019-06-20T00:01:50.060Z,0.00
2019-06-20T00:03:03.563Z,0.00
2019-06-20T00:03:50.027Z,0.00
2019-06-20T00:04:50.049Z,0.00
2019-06-20T00:05:49.999Z,0.00
2019-06-20T00:06:50.124Z,0.00
2019-06-20T00:07:49.971Z,0.00
2019-06-20T00:08:49.960Z,0.00
2019-06-20T00:09:52.438Z,0.00
2019-06-20T00:10:50.022Z,0.00
2019-06-20T00:11:49.957Z,0.00
2019-06-20T00:13:00.003Z,0.00
2019-06-20T00:13:50.955Z,0.00
2019-06-20T00:14:49.954Z,0.00
2019-06-20T00:15:49.993Z,0.00
2019-06-20T00:16:50.065Z,0.00
2019-06-20T00:17:49.935Z,0.00
2019-06-20T00:18:49.870Z,0.00
2019-06-20T00:19:49.845Z,0.00
2019-06-20T00:20:49.855Z,0.00
2019-06-20T00:21:49.820Z,0.00
2019-06-20T00:22:49.830Z,0.00
2019-06-20T00:24:03.396Z,0.00
2019-06-20T00:24:57.991Z,0.00
2019-06-20T00:25:49.815Z,0.00
2019-06-20T00:26:49.793Z,0.00
2019-06-20T00:27:49.777Z,0.00
2019-06-20T00:28:49.763Z,0.00
2019-06-20T00:29:49.756Z,0.00
2019-06-20T00:30:49.723Z,0.00
2019-06-20T00:31:49.754Z,0.00
2019-06-20T00:32:49.723Z,0.00
2019-06-20T00:33:49.687Z,0.00
2019-06-20T00:34:49.685Z,0.00
2019-06-20T00:35:58.467Z,0.00
2019-06-20T00:36:58.606Z,0.00
2019-06-20T00:37:57.188Z,0.00
2019-06-20T00:38:57.189Z,0.00
2019-06-20T00:40:04.175Z,0.00
2019-06-20T00:40:57.159Z,0.00
2019-06-20T00:41:49.601Z,0.00
2019-06-20T00:42:49.607Z,0.00
2019-06-20T00:43:49.584Z,0.00
2019-06-20T00:44:57.123Z,0.00
2019-06-20T00:45:49.563Z,0.00
2019-06-20T00:46:49.589Z,0.00
2019-06-20T00:47:49.577Z,0.00
2019-06-20T00:48:49.565Z,0.00
2019-06-20T00:49:49.618Z,0.00
2019-06-20T00:50:49.509Z,0.00
2019-06-20T00:51:57.039Z,0.00
2019-06-20T00:53:04.312Z,0.00
2019-06-20T00:53:58.020Z,0.00
2019-06-20T00:54:49.465Z,0.00
2019-06-20T00:55:49.499Z,0.00
2019-06-20T00:56:49.491Z,0.00
2019-06-20T00:57:49.455Z,0.00
2019-06-20T00:58:49.501Z,0.00
2019-06-20T00:59:49.453Z,0.00
2019-06-20T01:00:49.398Z,0.00
2019-06-20T01:01:49.384Z,0.00
2019-06-20T01:02:49.376Z,0.00
2019-06-20T01:03:49.383Z,0.00
2019-06-20T01:04:49.393Z,0.00
2019-06-20T01:05:49.399Z,0.00
2019-06-20T01:06:49.386Z,0.00
2019-06-20T01:07:49.368Z,0.00
2019-06-20T01:08:49.360Z,0.00
2019-06-20T01:09:49.333Z,0.00
2019-06-20T01:10:49.292Z,0.00
2019-06-20T01:11:49.317Z,0.00
2019-06-20T01:12:49.271Z,0.00
2019-06-20T01:13:52.599Z,0.00
2019-06-20T01:14:49.264Z,0.00
2019-06-20T01:15:49.243Z,0.00
2019-06-20T01:16:49.234Z,0.00
2019-06-20T01:17:49.228Z,0.00
2019-06-20T01:18:49.209Z,0.00
2019-06-20T01:19:49.221Z,0.00
2019-06-20T01:20:49.209Z,0.00
2019-06-20T01:21:49.204Z,0.00
2019-06-20T01:22:49.162Z,0.00
2019-06-20T01:23:49.157Z,0.00
2019-06-20T01:24:49.145Z,0.00
2019-06-20T01:25:49.147Z,0.00
2019-06-20T01:26:49.121Z,0.00
2019-06-20T01:27:49.121Z,0.00
2019-06-20T01:28:49.100Z,0.00
2019-06-20T01:29:49.152Z,0.00
2019-06-20T01:30:49.095Z,0.00
2019-06-20T01:31:49.076Z,0.00
2019-06-20T01:32:49.061Z,0.00
2019-06-20T01:33:49.039Z,0.00
2019-06-20T01:34:49.036Z,0.00
2019-06-20T01:35:49.048Z,0.00
2019-06-20T01:36:49.014Z,0.00
2019-06-20T01:37:49.004Z,0.00
2019-06-20T01:38:48.987Z,0.00
2019-06-20T01:39:48.983Z,0.00
2019-06-20T01:40:48.985Z,0.00
2019-06-20T01:41:48.953Z,0.00
2019-06-20T01:42:48.950Z,0.00
2019-06-20T01:43:51.048Z,0.00
2019-06-20T01:44:48.961Z,0.00
2019-06-20T01:45:48.936Z,0.00
2019-06-20T01:46:48.908Z,0.00
2019-06-20T01:47:48.892Z,0.00
2019-06-20T01:48:48.885Z,0.00
2019-06-20T01:49:48.866Z,0.00
2019-06-20T01:50:48.857Z,0.00
2019-06-20T01:51:48.909Z,0.00
2019-06-20T01:52:48.834Z,0.00
2019-06-20T01:53:48.827Z,0.00
2019-06-20T01:54:48.814Z,0.00
2019-06-20T01:55:48.813Z,0.00
2019-06-20T01:56:48.824Z,0.00
2019-06-20T01:57:48.789Z,0.00
2019-06-20T01:58:48.778Z,0.00
2019-06-20T01:59:48.773Z,0.00
2019-06-20T02:00:48.756Z,0.00
2019-06-20T02:01:48.771Z,0.00
2019-06-20T02:02:48.752Z,0.00
2019-06-20T02:03:48.737Z,0.00
2019-06-20T02:04:48.710Z,0.00
2019-06-20T02:05:48.700Z,0.00
2019-06-20T02:06:48.685Z,0.00
2019-06-20T02:07:48.693Z,0.00
2019-06-20T02:08:48.677Z,0.00
2019-06-20T02:09:48.653Z,0.00
2019-06-20T02:10:48.657Z,0.00
2019-06-20T02:11:48.640Z,0.00
2019-06-20T02:12:48.651Z,0.00
2019-06-20T02:13:48.609Z,0.00
2019-06-20T02:14:48.607Z,0.00
2019-06-20T02:15:48.634Z,0.00
2019-06-20T02:16:48.586Z,0.00
2019-06-20T02:17:48.601Z,0.00
2019-06-20T02:18:48.570Z,0.00
2019-06-20T02:19:48.550Z,0.00
2019-06-20T02:20:48.549Z,0.00
2019-06-20T02:21:48.530Z,0.00
2019-06-20T02:22:48.523Z,0.00
2019-06-20T02:23:48.527Z,0.00
2019-06-20T02:24:48.508Z,0.00
2019-06-20T02:25:48.484Z,0.00
2019-06-20T02:26:48.487Z,0.00
2019-06-20T02:27:48.460Z,0.00
2019-06-20T02:28:48.471Z,0.00
2019-06-20T02:29:48.451Z,0.00
2019-06-20T02:30:48.475Z,0.00
2019-06-20T02:31:48.427Z,0.00
2019-06-20T02:32:48.455Z,0.00
2019-06-20T02:33:48.442Z,0.00
2019-06-20T02:34:48.394Z,0.00
2019-06-20T02:35:48.423Z,0.00
2019-06-20T02:36:48.370Z,0.00
2019-06-20T02:37:48.354Z,0.00
2019-06-20T02:38:48.378Z,0.00
2019-06-20T02:39:48.340Z,0.00
2019-06-20T02:40:48.335Z,0.00
2019-06-20T02:41:48.352Z,0.00
2019-06-20T02:42:48.305Z,0.00
2019-06-20T02:43:48.317Z,0.00
2019-06-20T02:44:48.288Z,0.00
2019-06-20T02:45:48.270Z,0.00
2019-06-20T02:46:48.262Z,0.00
2019-06-20T02:47:48.265Z,0.00
2019-06-20T02:48:48.253Z,0.00
2019-06-20T02:49:48.237Z,0.00
2019-06-20T02:50:55.854Z,4.00
2019-06-20T02:51:48.278Z,4.00
2019-06-20T02:53:00.762Z,4.00
2019-06-20T02:53:48.246Z,0.00
2019-06-20T02:54:55.789Z,4.00
2019-06-20T02:55:55.714Z,4.00
2019-06-20T02:58:09.702Z,4.00
2019-06-20T02:59:18.365Z,4.00
2019-06-20T03:00:17.212Z,4.00
2019-06-20T03:01:17.156Z,8.00
2019-06-20T03:03:31.110Z,12.00
2019-06-20T03:04:31.121Z,8.00
2019-06-20T03:05:31.088Z,12.00
2019-06-20T03:06:31.150Z,12.00
2019-06-20T03:07:31.074Z,16.00
2019-06-20T03:08:31.057Z,12.00
2019-06-20T03:09:31.040Z,12.00
2019-06-20T03:10:31.056Z,16.00
2019-06-20T03:11:31.038Z,20.00
2019-06-20T03:12:31.005Z,20.00
2019-06-20T03:13:31.015Z,20.00
2019-06-20T03:14:44.552Z,24.00
2019-06-20T03:15:31.997Z,24.00
2019-06-20T03:16:30.971Z,20.00
2019-06-20T03:17:30.972Z,28.00
2019-06-20T03:18:30.937Z,32.00
2019-06-20T03:19:38.496Z,32.00
2019-06-20T03:20:44.856Z,36.00
2019-06-20T03:21:40.814Z,36.00
2019-06-20T03:22:39.503Z,44.00
2019-06-20T03:23:37.965Z,40.00
2019-06-20T03:24:30.878Z,44.00
2019-06-20T03:25:30.859Z,48.00
2019-06-20T03:26:30.880Z,48.00
2019-06-20T03:27:30.862Z,52.00
2019-06-20T03:28:30.830Z,56.00
2019-06-20T03:29:30.842Z,60.00
2019-06-20T03:30:30.819Z,60.00
2019-06-20T03:31:31.024Z,64.00
2019-06-20T03:32:30.785Z,64.00
2019-06-20T03:33:30.791Z,68.00
2019-06-20T03:34:30.775Z,68.00
2019-06-20T03:35:30.784Z,68.00
2019-06-20T03:36:30.777Z,72.00
2019-06-20T03:37:30.755Z,76.00
2019-06-20T03:38:30.720Z,72.00
2019-06-20T03:39:30.710Z,76.00
2019-06-20T03:40:30.725Z,76.00
2019-06-20T03:41:30.694Z,84.00
2019-06-20T03:42:30.733Z,88.00
2019-06-20T03:43:30.752Z,88.00
2019-06-20T03:44:30.657Z,88.00
2019-06-20T03:45:30.646Z,84.00
2019-06-20T03:46:30.651Z,84.00
2019-06-20T03:47:30.648Z,84.00
2019-06-20T03:48:30.606Z,96.00
2019-06-20T03:49:30.643Z,100.00
2019-06-20T03:50:30.584Z,104.00
2019-06-20T03:51:30.614Z,108.00
2019-06-20T03:52:30.591Z,112.00
2019-06-20T03:53:30.565Z,104.00
2019-06-20T03:54:30.543Z,108.00
2019-06-20T03:55:30.533Z,116.00
2019-06-20T03:56:30.517Z,124.00
2019-06-20T03:57:30.546Z,128.00
2019-06-20T03:58:30.511Z,128.00
2019-06-20T03:59:30.485Z,112.00
2019-06-20T04:00:30.492Z,100.00
2019-06-20T04:01:30.466Z,108.00
2019-06-20T04:02:30.472Z,108.00
2019-06-20T04:03:30.463Z,112.00
2019-06-20T04:04:30.458Z,124.00
2019-06-20T04:05:30.417Z,112.00
2019-06-20T04:06:30.408Z,88.00
2019-06-20T04:07:30.410Z,80.00
2019-06-20T04:08:30.407Z,88.00
2019-06-20T04:09:30.411Z,96.00
2019-06-20T04:10:30.430Z,112.00
2019-06-20T04:11:30.409Z,140.00
2019-06-20T04:12:30.359Z,172.00
2019-06-20T04:13:30.355Z,176.00
2019-06-20T04:14:30.329Z,180.00
2019-06-20T04:15:30.310Z,188.00
2019-06-20T04:16:30.300Z,184.00
2019-06-20T04:17:30.292Z,192.00
2019-06-20T04:18:30.299Z,200.00
2019-06-20T04:19:30.274Z,212.00
2019-06-20T04:20:30.261Z,204.00
2019-06-20T04:21:30.295Z,208.00
2019-06-20T04:22:30.234Z,200.00
2019-06-20T04:23:30.278Z,200.00
2019-06-20T04:24:30.223Z,176.00
2019-06-20T04:25:30.205Z,172.00
2019-06-20T04:26:30.191Z,172.00
2019-06-20T04:27:30.190Z,176.00
2019-06-20T04:28:30.212Z,172.00
2019-06-20T04:29:30.161Z,172.00
2019-06-20T04:30:30.148Z,208.00
2019-06-20T04:31:30.146Z,252.00
2019-06-20T04:32:30.129Z,260.00
2019-06-20T04:33:30.162Z,280.00
2019-06-20T04:34:30.131Z,332.00
2019-06-20T04:35:30.099Z,308.00
2019-06-20T04:36:30.090Z,248.00
2019-06-20T04:37:30.079Z,228.00
2019-06-20T04:38:30.065Z,248.00
2019-06-20T04:39:30.096Z,244.00
2019-06-20T04:40:30.043Z,224.00
2019-06-20T04:41:30.027Z,216.00
2019-06-20T04:42:30.022Z,204.00
2019-06-20T04:43:30.101Z,212.00
2019-06-20T04:44:30.044Z,204.00
2019-06-20T04:45:35.169Z,180.00
2019-06-20T04:46:30.977Z,156.00
2019-06-20T04:47:29.966Z,152.00
2019-06-20T04:48:29.976Z,168.00
2019-06-20T04:49:29.984Z,212.00
2019-06-20T04:50:29.974Z,228.00
2019-06-20T04:51:29.933Z,224.00
2019-06-20T04:52:29.918Z,268.00
2019-06-20T04:53:29.926Z,316.00
2019-06-20T04:54:29.894Z,368.00
2019-06-20T04:55:29.887Z,388.00
2019-06-20T04:56:29.885Z,376.00
2019-06-20T04:57:29.912Z,392.00
2019-06-20T04:58:29.848Z,424.00
2019-06-20T04:59:29.866Z,456.00
2019-06-20T05:00:29.827Z,500.00
2019-06-20T05:01:29.847Z,564.00
2019-06-20T05:02:29.842Z,636.00
2019-06-20T05:03:29.907Z,700.00
2019-06-20T05:04:29.823Z,728.00
2019-06-20T05:05:29.778Z,776.00
2019-06-20T05:06:29.769Z,924.00
2019-06-20T05:07:29.776Z,1088.00
2019-06-20T05:08:29.758Z,1132.00
2019-06-20T05:09:29.789Z,1252.00
2019-06-20T05:10:29.748Z,1292.00
2019-06-20T05:11:29.709Z,1200.00
2019-06-20T05:12:29.716Z,1120.00
2019-06-20T05:13:29.763Z,1136.00
2019-06-20T05:14:29.679Z,1388.00
2019-06-20T05:15:29.666Z,1696.00
2019-06-20T05:16:29.662Z,1624.00
2019-06-20T05:17:29.649Z,1516.00
2019-06-20T05:18:29.685Z,1432.00
2019-06-20T05:19:29.647Z,1304.00
2019-06-20T05:20:29.614Z,1096.00
2019-06-20T05:21:29.601Z,960.00
2019-06-20T05:22:29.591Z,932.00
2019-06-20T05:23:29.589Z,892.00
2019-06-20T05:24:29.646Z,880.00
2019-06-20T05:25:29.563Z,856.00
2019-06-20T05:26:29.548Z,932.00
2019-06-20T05:27:29.547Z,1016.00
2019-06-20T05:28:29.542Z,936.00
2019-06-20T05:29:29.669Z,884.00
2019-06-20T05:30:38.544Z,836.00
2019-06-20T05:31:37.043Z,808.00
2019-06-20T05:32:29.500Z,836.00
2019-06-20T05:33:29.479Z,844.00
2019-06-20T05:34:29.462Z,820.00
2019-06-20T05:35:29.495Z,816.00
2019-06-20T05:36:29.497Z,804.00
2019-06-20T05:37:29.435Z,768.00
2019-06-20T05:38:29.439Z,792.00
2019-06-20T05:39:29.408Z,840.00
2019-06-20T05:40:29.418Z,884.00
2019-06-20T05:41:29.408Z,900.00
2019-06-20T05:42:29.388Z,952.00
2019-06-20T05:43:29.375Z,964.00
2019-06-20T05:44:29.359Z,940.00
2019-06-20T05:45:29.367Z,904.00
2019-06-20T05:46:29.641Z,896.00
2019-06-20T05:47:29.346Z,1012.00
2019-06-20T05:48:29.335Z,1176.00
2019-06-20T05:49:29.303Z,1224.00
2019-06-20T05:50:29.352Z,1320.00
2019-06-20T05:51:29.287Z,1288.00
2019-06-20T05:52:29.275Z,1244.00
2019-06-20T05:53:29.286Z,1356.00
2019-06-20T05:54:29.248Z,1484.00
2019-06-20T05:55:29.259Z,1884.00
2019-06-20T05:56:29.231Z,2316.00
2019-06-20T05:57:29.226Z,2508.00
2019-06-20T05:58:29.265Z,2552.00
2019-06-20T05:59:29.211Z,2600.00
2019-06-20T06:00:29.202Z,2936.00
2019-06-20T06:01:29.362Z,2936.00
2019-06-20T06:02:29.161Z,2736.00
2019-06-20T06:03:29.182Z,2900.00
2019-06-20T06:04:29.280Z,2796.00
2019-06-20T06:05:29.189Z,2736.00
2019-06-20T06:06:29.958Z,2972.00
2019-06-20T06:07:29.116Z,3124.00
2019-06-20T06:08:29.098Z,2952.00
2019-06-20T06:09:29.087Z,2704.00
2019-06-20T06:10:29.131Z,2492.00
2019-06-20T06:11:29.077Z,2464.00
2019-06-20T06:12:29.057Z,2460.00
2019-06-20T06:13:29.043Z,2572.00
2019-06-20T06:14:29.104Z,2588.00
2019-06-20T06:15:29.064Z,2548.00
2019-06-20T06:16:29.016Z,2668.00
2019-06-20T06:17:29.020Z,2828.00
2019-06-20T06:18:29.055Z,2984.00
2019-06-20T06:19:28.980Z,3036.00
2019-06-20T06:20:29.101Z,2936.00
2019-06-20T06:21:28.965Z,2740.00
2019-06-20T06:22:28.957Z,2572.00
2019-06-20T06:23:28.959Z,2452.00
2019-06-20T06:24:28.927Z,2488.00
2019-06-20T06:25:28.935Z,2700.00
2019-06-20T06:26:28.906Z,2844.00
2019-06-20T06:27:28.904Z,3044.00
2019-06-20T06:28:28.887Z,2888.00
2019-06-20T06:29:28.927Z,2556.00
2019-06-20T06:30:28.885Z,2480.00
2019-06-20T06:31:29.381Z,2656.00
2019-06-20T06:32:39.631Z,2788.00
2019-06-20T06:33:29.841Z,2744.00
2019-06-20T06:34:28.827Z,2844.00
2019-06-20T06:35:28.836Z,2680.00
2019-06-20T06:36:28.876Z,2460.00
2019-06-20T06:37:28.787Z,2400.00
2019-06-20T06:38:28.778Z,2360.00
2019-06-20T06:39:28.773Z,2240.00
2019-06-20T06:40:28.761Z,2240.00
2019-06-20T06:41:28.775Z,2332.00
2019-06-20T06:42:28.739Z,2480.00
2019-06-20T06:43:28.738Z,2716.00
2019-06-20T06:44:31.664Z,2872.00
2019-06-20T06:45:28.710Z,2960.00
2019-06-20T06:46:42.972Z,3208.00
2019-06-20T06:47:29.712Z,3444.00
2019-06-20T06:48:28.675Z,3592.00
2019-06-20T06:49:28.664Z,3476.00
2019-06-20T06:50:28.701Z,3200.00
2019-06-20T06:51:28.677Z,2976.00
2019-06-20T06:52:28.627Z,3072.00
2019-06-20T06:53:28.620Z,3192.00
2019-06-20T06:54:28.604Z,3580.00
2019-06-20T06:55:28.595Z,3804.00
2019-06-20T06:56:28.611Z,4012.00
2019-06-20T06:57:28.583Z,4456.00
2019-06-20T06:58:28.563Z,4928.00
2019-06-20T06:59:28.555Z,4756.00
2019-06-20T07:00:28.562Z,4392.00
2019-06-20T07:01:28.564Z,4448.00
2019-06-20T07:02:28.584Z,4812.00
2019-06-20T07:03:28.509Z,4956.00
2019-06-20T07:04:28.506Z,4708.00
2019-06-20T07:05:28.513Z,4364.00
2019-06-20T07:06:28.575Z,4668.00
2019-06-20T07:07:28.508Z,4708.00
2019-06-20T07:08:28.505Z,4168.00
2019-06-20T07:09:28.478Z,4320.00
2019-06-20T07:10:28.442Z,4632.00
2019-06-20T07:11:28.425Z,4880.00
2019-06-20T07:12:28.436Z,5264.00
2019-06-20T07:13:28.410Z,4900.00
2019-06-20T07:14:28.401Z,4720.00
2019-06-20T07:15:40.077Z,4660.00
2019-06-20T07:16:35.959Z,4784.00
2019-06-20T07:17:28.388Z,4552.00
2019-06-20T07:18:28.419Z,4100.00
2019-06-20T07:19:41.963Z,4272.00
2019-06-20T07:20:35.939Z,4248.00
2019-06-20T07:21:28.398Z,4276.00
2019-06-20T07:22:28.367Z,4512.00
2019-06-20T07:23:28.290Z,4744.00
2019-06-20T07:24:28.317Z,4884.00
2019-06-20T07:25:28.331Z,5440.00
2019-06-20T07:26:28.266Z,6112.00
2019-06-20T07:27:28.300Z,5544.00
2019-06-20T07:28:28.324Z,5328.00
2019-06-20T07:29:28.228Z,5348.00
2019-06-20T07:30:28.235Z,5380.00
2019-06-20T07:31:28.253Z,5648.00
2019-06-20T07:32:28.221Z,5612.00
2019-06-20T07:33:28.187Z,5208.00
2019-06-20T07:34:28.174Z,4732.00
2019-06-20T07:35:28.182Z,4928.00
2019-06-20T07:36:28.162Z,4980.00
2019-06-20T07:37:28.173Z,4592.00
2019-06-20T07:38:28.133Z,4440.00
2019-06-20T07:39:28.130Z,4648.00
2019-06-20T07:40:28.122Z,4924.00
2019-06-20T07:41:28.123Z,4868.00
2019-06-20T07:42:28.119Z,4740.00
2019-06-20T07:43:28.118Z,4708.00
2019-06-20T07:44:28.067Z,5280.00
2019-06-20T07:45:28.054Z,5844.00
2019-06-20T07:46:28.094Z,5744.00
2019-06-20T07:47:28.047Z,5160.00
2019-06-20T07:48:36.724Z,4608.00
2019-06-20T07:49:28.016Z,4668.00
2019-06-20T07:50:28.005Z,5340.00
2019-06-20T07:51:27.998Z,6228.00
2019-06-20T07:52:28.005Z,7096.00
2019-06-20T07:53:27.994Z,8228.00
2019-06-20T07:54:27.997Z,9396.00
2019-06-20T07:55:27.969Z,8500.00
2019-06-20T07:56:27.943Z,8160.00
2019-06-20T07:57:27.923Z,7640.00
2019-06-20T07:58:27.977Z,8044.00
2019-06-20T07:59:27.930Z,7988.00
2019-06-20T08:00:27.915Z,6816.00
2019-06-20T08:01:27.926Z,5832.00
2019-06-20T08:02:27.869Z,5236.00
2019-06-20T08:03:27.930Z,5876.00
2019-06-20T08:04:27.893Z,5636.00
2019-06-20T08:05:27.847Z,5668.00
2019-06-20T08:06:27.912Z,5748.00
2019-06-20T08:07:27.817Z,6048.00
2019-06-20T08:08:27.841Z,6448.00
2019-06-20T08:09:43.956Z,7284.00
2019-06-20T08:10:28.835Z,8376.00
2019-06-20T08:11:27.796Z,10380.00
2019-06-20T08:12:27.792Z,11068.00
2019-06-20T08:13:27.800Z,12336.00
2019-06-20T08:14:27.745Z,11456.00
2019-06-20T08:15:27.734Z,9324.00
2019-06-20T08:16:27.780Z,7380.00
2019-06-20T08:17:35.328Z,8400.00
2019-06-20T08:18:28.749Z,7664.00
2019-06-20T08:19:27.686Z,8288.00
2019-06-20T08:20:27.678Z,6392.00
2019-06-20T08:21:27.677Z,6916.00
2019-06-20T08:22:27.657Z,11680.00
2019-06-20T08:23:27.685Z,6436.00
2019-06-20T08:24:27.632Z,6164.00
2019-06-20T08:25:27.669Z,8480.00
2019-06-20T08:26:27.611Z,7404.00
2019-06-20T08:27:27.712Z,8004.00
2019-06-20T08:28:27.619Z,14284.00
2019-06-20T08:29:27.583Z,34624.00
2019-06-20T08:30:27.607Z,23584.00
2019-06-20T08:31:27.595Z,47296.00
2019-06-20T08:32:27.555Z,42976.00
2019-06-20T08:33:27.574Z,51648.00
2019-06-20T08:34:27.569Z,68896.00
2019-06-20T08:35:27.517Z,67584.00
2019-06-20T08:36:27.513Z,77792.00
2019-06-20T08:37:27.513Z,72928.00
2019-06-20T08:38:27.482Z,72224.00
2019-06-20T08:39:29.399Z,62112.00
2019-06-20T08:40:27.480Z,11188.00
2019-06-20T08:41:27.495Z,23232.00
2019-06-20T08:42:27.465Z,23008.00
2019-06-20T08:43:27.435Z,7376.00
2019-06-20T08:44:27.427Z,6640.00
2019-06-20T08:45:27.424Z,6116.00
2019-06-20T08:46:27.407Z,8212.00
2019-06-20T08:47:27.426Z,11588.00
2019-06-20T08:48:27.380Z,30656.00
2019-06-20T08:49:27.373Z,20384.00
2019-06-20T08:50:42.001Z,15284.00
2019-06-20T08:51:35.924Z,69088.00
2019-06-20T08:52:36.368Z,82752.00
2019-06-20T08:53:27.338Z,64352.00
2019-06-20T08:54:27.397Z,26368.00
2019-06-20T08:55:27.308Z,36544.00
2019-06-20T08:56:27.298Z,22912.00
2019-06-20T08:57:40.882Z,11704.00
2019-06-20T08:58:27.367Z,14512.00
2019-06-20T08:59:27.344Z,14492.00
2019-06-20T09:00:34.810Z,11264.00
2019-06-20T09:01:27.288Z,52064.00
2019-06-20T09:02:37.327Z,7624.00
2019-06-20T09:03:36.030Z,8000.00
2019-06-20T09:04:34.812Z,15644.00
2019-06-20T09:05:34.835Z,6364.00
2019-06-20T09:06:27.262Z,4948.00
2019-06-20T09:07:27.181Z,4504.00
2019-06-20T09:08:38.043Z,4872.00
2019-06-20T09:09:34.718Z,5724.00
2019-06-20T09:10:40.857Z,4424.00
2019-06-20T09:11:27.158Z,4324.00
2019-06-20T09:12:27.165Z,4364.00
2019-06-20T09:13:27.147Z,4700.00
2019-06-20T09:14:27.105Z,4840.00
2019-06-20T09:15:27.104Z,5240.00
2019-06-20T09:16:27.099Z,14552.00
2019-06-20T09:17:27.076Z,10956.00
2019-06-20T09:18:27.104Z,23680.00
2019-06-20T09:19:40.661Z,25440.00
2019-06-20T09:23:25.293Z,10272.00
2019-06-20T09:24:25.333Z,17632.00
2019-06-20T09:26:49.070Z,11092.00
2019-06-20T09:27:56.179Z,6872.00
2019-06-20T09:35:57.992Z,6536.00
2019-06-20T09:36:59.296Z,6988.00
2019-06-20T09:37:59.201Z,7520.00
2019-06-20T09:38:59.498Z,18144.00
2019-06-20T09:39:59.176Z,15928.00
2019-06-20T09:40:59.161Z,8944.00
2019-06-20T09:41:58.905Z,9828.00
2019-06-20T09:42:58.790Z,10616.00
2019-06-20T09:43:58.549Z,12012.00
2019-06-20T09:44:58.468Z,9420.00
2019-06-20T09:45:58.401Z,8696.00
2019-06-20T09:48:20.356Z,15252.00
2019-06-20T09:49:30.622Z,29152.00
2019-06-20T09:52:53.181Z,20512.00
2019-06-20T09:54:03.780Z,15940.00
2019-06-20T09:55:00.582Z,16544.00
2019-06-20T09:55:51.982Z,66560.00
2019-06-20T09:56:59.508Z,19424.00
2019-06-20T09:57:52.057Z,20448.00
2019-06-20T10:00:13.517Z,13056.00
2019-06-20T10:01:13.405Z,12800.00
2019-06-20T10:02:21.082Z,12972.00
2019-06-20T10:03:22.286Z,13364.00
2019-06-20T10:04:13.389Z,12828.00
2019-06-20T10:05:13.354Z,12700.00
2019-06-20T10:06:14.660Z,11732.00
2019-06-20T10:07:13.345Z,10928.00
2019-06-20T10:08:13.321Z,11804.00
2019-06-20T10:09:13.329Z,12296.00
2019-06-20T10:10:13.307Z,13960.00
2019-06-20T10:11:13.305Z,14300.00
2019-06-20T10:12:13.284Z,13440.00
2019-06-20T10:13:13.290Z,13248.00
2019-06-20T10:14:13.323Z,13820.00
2019-06-20T10:15:13.251Z,13148.00
2019-06-20T10:16:13.306Z,13168.00
2019-06-20T10:17:13.246Z,12896.00
2019-06-20T10:18:13.223Z,11376.00
2019-06-20T10:19:13.569Z,10760.00
2019-06-20T10:20:13.283Z,10956.00
2019-06-20T10:21:13.238Z,11408.00
2019-06-20T10:22:13.195Z,11496.00
2019-06-20T10:23:13.190Z,11156.00
2019-06-20T10:24:13.176Z,10852.00
2019-06-20T10:25:13.167Z,11008.00
2019-06-20T10:26:13.144Z,9964.00
2019-06-20T10:27:13.189Z,9640.00
2019-06-20T10:28:13.212Z,9756.00
2019-06-20T10:29:13.196Z,9044.00
2019-06-20T10:30:14.639Z,8632.00
2019-06-20T10:31:13.076Z,9252.00
2019-06-20T10:32:13.106Z,8940.00
2019-06-20T10:33:13.052Z,8172.00
2019-06-20T10:34:13.048Z,9076.00
2019-06-20T10:35:13.087Z,8992.00
2019-06-20T10:36:13.024Z,8900.00
2019-06-20T10:37:13.012Z,8700.00
2019-06-20T10:38:13.004Z,9412.00
2019-06-20T10:39:13.031Z,9668.00
2019-06-20T10:40:13.020Z,8396.00
2019-06-20T10:41:13.180Z,9944.00
2019-06-20T10:42:13.155Z,7872.00
2019-06-20T10:43:12.944Z,7016.00
2019-06-20T10:44:12.938Z,5696.00
2019-06-20T10:45:12.965Z,5836.00
2019-06-20T10:46:12.943Z,6660.00
2019-06-20T10:47:12.920Z,7528.00
2019-06-20T10:48:12.906Z,7844.00
2019-06-20T10:49:12.889Z,8228.00
2019-06-20T10:50:12.917Z,7624.00
2019-06-20T10:51:12.864Z,7268.00
2019-06-20T10:54:43.282Z,8640.00
2019-06-20T10:55:51.173Z,9564.00
2019-06-20T10:58:03.107Z,11288.00
2019-06-20T10:59:10.682Z,8456.00
2019-06-20T11:00:10.645Z,5928.00
2019-06-20T11:01:12.863Z,4540.00
2019-06-20T11:02:16.621Z,4484.00
2019-06-20T11:03:10.662Z,3912.00
2019-06-20T11:06:39.954Z,2796.00
2019-06-20T11:11:19.829Z,3268.00
2019-06-20T11:12:42.580Z,3628.00
2019-06-20T11:13:28.364Z,3720.00
2019-06-20T11:14:28.289Z,3508.00
2019-06-20T11:15:34.367Z,3648.00
2019-06-20T11:16:29.650Z,4684.00
2019-06-20T11:17:27.294Z,5792.00
2019-06-20T11:18:28.569Z,9072.00
2019-06-20T11:19:19.709Z,9656.00
2019-06-20T11:20:27.315Z,8984.00
2019-06-20T11:21:29.779Z,8480.00
2019-06-20T11:23:54.552Z,7596.00
2019-06-20T11:24:54.685Z,7348.00
2019-06-20T11:27:21.705Z,5420.00
2019-06-20T11:28:29.190Z,7600.00
2019-06-20T11:36:54.855Z,5488.00
2019-06-20T11:41:39.908Z,5280.00
2019-06-20T11:42:40.015Z,3132.00
2019-06-20T11:43:40.075Z,3324.00
2019-06-20T11:44:40.869Z,3156.00
2019-06-20T11:45:40.919Z,2640.00
2019-06-20T11:46:40.656Z,2312.00
2019-06-20T11:47:40.521Z,2292.00
2019-06-20T11:48:40.590Z,2020.00
2019-06-20T11:49:40.388Z,1912.00
2019-06-20T11:50:40.051Z,2192.00
2019-06-20T11:51:39.903Z,2412.00
2019-06-20T11:52:42.403Z,2412.00
2019-06-20T11:53:40.651Z,2320.00
2019-06-20T11:54:40.319Z,2448.00
2019-06-20T11:55:39.736Z,2788.00
2019-06-20T11:56:39.742Z,3136.00
2019-06-20T11:57:39.721Z,3528.00
2019-06-20T11:58:39.721Z,3928.00
2019-06-20T11:59:39.693Z,3916.00
2019-06-20T12:00:39.682Z,3584.00
2019-06-20T12:01:40.985Z,3464.00
2019-06-20T12:02:41.143Z,3428.00
2019-06-20T12:03:40.744Z,3376.00
2019-06-20T12:04:41.099Z,3172.00
2019-06-20T12:05:40.181Z,2964.00
2019-06-20T12:06:40.157Z,2988.00
2019-06-20T12:07:41.387Z,2872.00
2019-06-20T12:08:40.658Z,2572.00
2019-06-20T12:09:40.950Z,2580.00
2019-06-20T12:10:40.869Z,2596.00
2019-06-20T12:11:40.642Z,2644.00
2019-06-20T12:12:40.893Z,2516.00
2019-06-20T12:13:40.417Z,2380.00
2019-06-20T12:14:41.050Z,2228.00
2019-06-20T12:15:41.094Z,2504.00
2019-06-20T12:16:40.851Z,2972.00
2019-06-20T12:17:41.290Z,3456.00
2019-06-20T12:18:40.201Z,3768.00
2019-06-20T12:19:40.824Z,4000.00
2019-06-20T12:20:41.050Z,3768.00
2019-06-20T12:21:40.953Z,3740.00
2019-06-20T12:22:39.917Z,4196.00
2019-06-20T12:23:40.593Z,4452.00
2019-06-20T12:24:40.008Z,4464.00
2019-06-20T12:25:40.926Z,4580.00
2019-06-20T12:26:40.656Z,4708.00
2019-06-20T12:27:40.662Z,4688.00
2019-06-20T12:28:40.744Z,4412.00
2019-06-20T12:29:40.576Z,3936.00
2019-06-20T12:30:40.150Z,3520.00
2019-06-20T12:31:39.560Z,3056.00
2019-06-20T12:32:40.526Z,2596.00
2019-06-20T12:33:40.813Z,2508.00
2019-06-20T12:34:40.493Z,2792.00
2019-06-20T12:35:40.950Z,3172.00
2019-06-20T12:36:40.820Z,3204.00
2019-06-20T12:37:40.474Z,2740.00
2019-06-20T12:38:39.780Z,2248.00
2019-06-20T12:39:40.411Z,2020.00
2019-06-20T12:40:40.883Z,1892.00
2019-06-20T12:41:39.702Z,1844.00
2019-06-20T12:42:41.254Z,1908.00
2019-06-20T12:43:40.336Z,1984.00
2019-06-20T12:44:40.081Z,1980.00
2019-06-20T12:45:40.001Z,1784.00
2019-06-20T12:46:39.924Z,1516.00
2019-06-20T12:47:40.198Z,1248.00
2019-06-20T12:48:39.948Z,1012.00
2019-06-20T12:49:40.240Z,892.00
2019-06-20T12:50:40.252Z,888.00
2019-06-20T12:51:40.469Z,884.00
2019-06-20T12:52:40.707Z,896.00
2019-06-20T12:53:40.388Z,896.00
2019-06-20T12:54:40.979Z,864.00
2019-06-20T12:55:40.345Z,852.00
2019-06-20T12:56:40.250Z,808.00
2019-06-20T12:57:40.251Z,700.00
2019-06-20T12:58:40.587Z,576.00
2019-06-20T12:59:40.948Z,492.00
2019-06-20T13:00:41.248Z,440.00
2019-06-20T13:01:42.533Z,416.00
2019-06-20T13:02:41.762Z,392.00
2019-06-20T13:03:40.416Z,368.00
2019-06-20T13:04:39.917Z,328.00
2019-06-20T13:05:40.147Z,312.00
2019-06-20T13:06:40.479Z,304.00
2019-06-20T13:07:40.537Z,324.00
2019-06-20T13:08:40.361Z,368.00
2019-06-20T13:09:39.462Z,388.00
2019-06-20T13:10:40.245Z,380.00